sensor_id;sensor_type;location;lat;lon;timestamp;temperature;humidity
56172;DHT22;42052;41.634;-0.946;2023-08-06T00:00:22;27.10;46.80
56172;DHT22;42052;41.634;-0.946;2023-08-06T00:02:48;27.10;46.80
56172;DHT22;42052;41.634;-0.946;2023-08-06T00:05:15;27.10;46.80
56172;DHT22;42052;41.634;-0.946;2023-08-06T00:07:49;27.10;46.80
56172;DHT22;42052;41.634;-0.946;2023-08-06T00:10:15;27.10;46.70
56172;DHT22;42052;41.634;-0.946;2023-08-06T00:12:41;27.10;46.70
56172;DHT22;42052;41.634;-0.946;2023-08-06T00:15:08;27.10;46.80
56172;DHT22;42052;41.634;-0.946;2023-08-06T00:17:34;27.10;46.80
56172;DHT22;42052;41.634;-0.946;2023-08-06T00:20:01;27.10;46.80
56172;DHT22;42052;41.634;-0.946;2023-08-06T00:22:37;27.10;46.80
56172;DHT22;42052;41.634;-0.946;2023-08-06T00:25:05;27.10;46.80
56172;DHT22;42052;41.634;-0.946;2023-08-06T00:27:31;27.10;46.80
56172;DHT22;42052;41.634;-0.946;2023-08-06T00:29:58;27.10;46.80
56172;DHT22;42052;41.634;-0.946;2023-08-06T00:32:23;27.10;46.90
56172;DHT22;42052;41.634;-0.946;2023-08-06T00:34:49;27.10;46.80
56172;DHT22;42052;41.634;-0.946;2023-08-06T00:37:16;27.10;46.90
56172;DHT22;42052;41.634;-0.946;2023-08-06T00:39:42;27.10;46.80
56172;DHT22;42052;41.634;-0.946;2023-08-06T00:42:09;27.10;46.90
56172;DHT22;42052;41.634;-0.946;2023-08-06T00:44:37;27.10;46.80
56172;DHT22;42052;41.634;-0.946;2023-08-06T00:47:04;27.10;46.90
56172;DHT22;42052;41.634;-0.946;2023-08-06T00:49:29;27.10;46.90
56172;DHT22;42052;41.634;-0.946;2023-08-06T00:51:56;27.10;46.90
56172;DHT22;42052;41.634;-0.946;2023-08-06T00:54:23;27.10;46.80
56172;DHT22;42052;41.634;-0.946;2023-08-06T00:56:50;27.10;46.80
56172;DHT22;42052;41.634;-0.946;2023-08-06T00:59:16;27.10;46.90
56172;DHT22;42052;41.634;-0.946;2023-08-06T01:01:42;27.10;46.90
56172;DHT22;42052;41.634;-0.946;2023-08-06T01:04:08;27.10;46.90
56172;DHT22;42052;41.634;-0.946;2023-08-06T01:06:48;27.10;46.90
56172;DHT22;42052;41.634;-0.946;2023-08-06T01:09:48;27.10;46.80
56172;DHT22;42052;41.634;-0.946;2023-08-06T01:12:21;27.10;46.90
56172;DHT22;42052;41.634;-0.946;2023-08-06T01:15:10;27.10;46.90
56172;DHT22;42052;41.634;-0.946;2023-08-06T01:17:39;27.10;46.90
56172;DHT22;42052;41.634;-0.946;2023-08-06T01:20:05;27.10;46.90
56172;DHT22;42052;41.634;-0.946;2023-08-06T01:22:31;27.10;46.90
56172;DHT22;42052;41.634;-0.946;2023-08-06T01:24:57;27.10;47.00
56172;DHT22;42052;41.634;-0.946;2023-08-06T01:27:37;27.10;47.00
56172;DHT22;42052;41.634;-0.946;2023-08-06T01:30:22;27.10;47.00
56172;DHT22;42052;41.634;-0.946;2023-08-06T01:32:53;27.10;47.10
56172;DHT22;42052;41.634;-0.946;2023-08-06T01:35:20;27.10;47.00
56172;DHT22;42052;41.634;-0.946;2023-08-06T01:37:47;27.10;47.00
56172;DHT22;42052;41.634;-0.946;2023-08-06T01:40:13;27.10;47.10
56172;DHT22;42052;41.634;-0.946;2023-08-06T01:42:39;27.10;47.10
56172;DHT22;42052;41.634;-0.946;2023-08-06T01:45:07;27.10;47.00
56172;DHT22;42052;41.634;-0.946;2023-08-06T01:47:33;27.10;47.10
56172;DHT22;42052;41.634;-0.946;2023-08-06T01:49:59;27.10;47.10
56172;DHT22;42052;41.634;-0.946;2023-08-06T01:52:26;27.10;47.10
56172;DHT22;42052;41.634;-0.946;2023-08-06T01:54:51;27.10;47.10
56172;DHT22;42052;41.634;-0.946;2023-08-06T01:57:17;27.10;47.10
56172;DHT22;42052;41.634;-0.946;2023-08-06T01:59:43;27.10;47.10
56172;DHT22;42052;41.634;-0.946;2023-08-06T02:02:09;27.10;47.10
56172;DHT22;42052;41.634;-0.946;2023-08-06T02:04:35;27.10;47.20
56172;DHT22;42052;41.634;-0.946;2023-08-06T02:07:01;27.10;47.20
56172;DHT22;42052;41.634;-0.946;2023-08-06T02:09:27;27.10;47.10
56172;DHT22;42052;41.634;-0.946;2023-08-06T02:11:52;27.10;47.10
56172;DHT22;42052;41.634;-0.946;2023-08-06T02:14:18;27.10;47.20
56172;DHT22;42052;41.634;-0.946;2023-08-06T02:16:44;27.10;47.20
56172;DHT22;42052;41.634;-0.946;2023-08-06T02:19:10;27.10;47.20
56172;DHT22;42052;41.634;-0.946;2023-08-06T02:21:36;27.10;47.20
56172;DHT22;42052;41.634;-0.946;2023-08-06T02:24:02;27.10;47.20
56172;DHT22;42052;41.634;-0.946;2023-08-06T02:26:28;27.10;47.20
56172;DHT22;42052;41.634;-0.946;2023-08-06T02:28:53;27.10;47.20
56172;DHT22;42052;41.634;-0.946;2023-08-06T02:31:19;27.10;47.20
56172;DHT22;42052;41.634;-0.946;2023-08-06T02:33:45;27.10;47.20
56172;DHT22;42052;41.634;-0.946;2023-08-06T02:36:11;27.10;47.30
56172;DHT22;42052;41.634;-0.946;2023-08-06T02:38:36;27.10;47.30
56172;DHT22;42052;41.634;-0.946;2023-08-06T02:41:03;27.10;47.40
56172;DHT22;42052;41.634;-0.946;2023-08-06T02:43:29;27.10;47.50
56172;DHT22;42052;41.634;-0.946;2023-08-06T02:45:59;27.10;47.50
56172;DHT22;42052;41.634;-0.946;2023-08-06T02:48:24;27.10;47.50
56172;DHT22;42052;41.634;-0.946;2023-08-06T02:50:50;27.10;47.50
56172;DHT22;42052;41.634;-0.946;2023-08-06T02:53:16;27.10;47.50
56172;DHT22;42052;41.634;-0.946;2023-08-06T02:55:48;27.10;47.50
56172;DHT22;42052;41.634;-0.946;2023-08-06T02:58:15;27.10;47.50
56172;DHT22;42052;41.634;-0.946;2023-08-06T03:00:41;27.10;47.60
56172;DHT22;42052;41.634;-0.946;2023-08-06T03:03:07;27.10;47.60
56172;DHT22;42052;41.634;-0.946;2023-08-06T03:05:33;27.10;47.60
56172;DHT22;42052;41.634;-0.946;2023-08-06T03:07:59;27.10;47.50
56172;DHT22;42052;41.634;-0.946;2023-08-06T03:10:25;27.10;47.60
56172;DHT22;42052;41.634;-0.946;2023-08-06T03:12:50;27.10;47.50
56172;DHT22;42052;41.634;-0.946;2023-08-06T03:15:16;27.10;47.50
56172;DHT22;42052;41.634;-0.946;2023-08-06T03:17:42;27.10;47.50
56172;DHT22;42052;41.634;-0.946;2023-08-06T03:20:09;27.10;47.50
56172;DHT22;42052;41.634;-0.946;2023-08-06T03:22:35;27.10;47.60
56172;DHT22;42052;41.634;-0.946;2023-08-06T03:25:01;27.10;47.60
56172;DHT22;42052;41.634;-0.946;2023-08-06T03:27:27;27.10;47.60
56172;DHT22;42052;41.634;-0.946;2023-08-06T03:29:53;27.10;47.60
56172;DHT22;42052;41.634;-0.946;2023-08-06T03:32:19;27.10;47.60
56172;DHT22;42052;41.634;-0.946;2023-08-06T03:34:45;27.10;47.60
56172;DHT22;42052;41.634;-0.946;2023-08-06T03:37:11;27.10;47.50
56172;DHT22;42052;41.634;-0.946;2023-08-06T03:39:37;27.10;47.60
56172;DHT22;42052;41.634;-0.946;2023-08-06T03:42:03;27.10;47.50
56172;DHT22;42052;41.634;-0.946;2023-08-06T03:44:29;27.00;47.50
56172;DHT22;42052;41.634;-0.946;2023-08-06T03:46:56;27.00;47.60
56172;DHT22;42052;41.634;-0.946;2023-08-06T03:49:22;27.10;47.60
56172;DHT22;42052;41.634;-0.946;2023-08-06T03:51:47;27.10;47.70
56172;DHT22;42052;41.634;-0.946;2023-08-06T03:54:13;27.10;47.60
56172;DHT22;42052;41.634;-0.946;2023-08-06T03:56:39;27.00;47.60
56172;DHT22;42052;41.634;-0.946;2023-08-06T03:59:05;27.10;47.70
56172;DHT22;42052;41.634;-0.946;2023-08-06T04:01:30;27.10;47.70
56172;DHT22;42052;41.634;-0.946;2023-08-06T04:03:56;27.10;48.40
56172;DHT22;42052;41.634;-0.946;2023-08-06T04:06:22;27.10;47.70
56172;DHT22;42052;41.634;-0.946;2023-08-06T04:08:48;27.10;47.80
56172;DHT22;42052;41.634;-0.946;2023-08-06T04:11:13;27.10;47.80
56172;DHT22;42052;41.634;-0.946;2023-08-06T04:13:42;27.10;47.70
56172;DHT22;42052;41.634;-0.946;2023-08-06T04:16:09;27.10;47.70
56172;DHT22;42052;41.634;-0.946;2023-08-06T04:18:35;27.10;47.80
56172;DHT22;42052;41.634;-0.946;2023-08-06T04:21:02;27.10;47.80
56172;DHT22;42052;41.634;-0.946;2023-08-06T04:23:28;27.00;47.70
56172;DHT22;42052;41.634;-0.946;2023-08-06T04:25:57;27.00;47.90
56172;DHT22;42052;41.634;-0.946;2023-08-06T04:28:22;27.10;47.80
56172;DHT22;42052;41.634;-0.946;2023-08-06T04:30:48;27.10;47.90
56172;DHT22;42052;41.634;-0.946;2023-08-06T04:33:14;27.00;47.80
56172;DHT22;42052;41.634;-0.946;2023-08-06T04:35:40;27.10;47.80
56172;DHT22;42052;41.634;-0.946;2023-08-06T04:38:06;27.10;47.90
56172;DHT22;42052;41.634;-0.946;2023-08-06T04:40:35;27.00;47.70
56172;DHT22;42052;41.634;-0.946;2023-08-06T04:43:01;27.10;47.80
56172;DHT22;42052;41.634;-0.946;2023-08-06T04:45:27;27.00;47.70
56172;DHT22;42052;41.634;-0.946;2023-08-06T04:47:53;27.10;47.80
56172;DHT22;42052;41.634;-0.946;2023-08-06T04:50:21;27.00;47.70
56172;DHT22;42052;41.634;-0.946;2023-08-06T04:52:47;27.00;47.70
56172;DHT22;42052;41.634;-0.946;2023-08-06T04:55:13;27.00;47.70
56172;DHT22;42052;41.634;-0.946;2023-08-06T04:57:39;27.00;47.70
56172;DHT22;42052;41.634;-0.946;2023-08-06T05:00:05;27.00;47.70
56172;DHT22;42052;41.634;-0.946;2023-08-06T05:02:31;27.00;47.80
56172;DHT22;42052;41.634;-0.946;2023-08-06T05:05:00;27.00;47.80
56172;DHT22;42052;41.634;-0.946;2023-08-06T05:07:26;27.00;47.70
56172;DHT22;42052;41.634;-0.946;2023-08-06T05:09:52;27.00;47.70
56172;DHT22;42052;41.634;-0.946;2023-08-06T05:12:17;27.00;47.70
56172;DHT22;42052;41.634;-0.946;2023-08-06T05:14:43;27.00;47.70
56172;DHT22;42052;41.634;-0.946;2023-08-06T05:17:09;27.00;47.80
56172;DHT22;42052;41.634;-0.946;2023-08-06T05:19:34;27.00;47.80
56172;DHT22;42052;41.634;-0.946;2023-08-06T05:22:00;27.00;47.80
56172;DHT22;42052;41.634;-0.946;2023-08-06T05:24:27;27.00;47.80
56172;DHT22;42052;41.634;-0.946;2023-08-06T05:26:53;27.00;47.80
56172;DHT22;42052;41.634;-0.946;2023-08-06T05:29:19;27.00;47.70
56172;DHT22;42052;41.634;-0.946;2023-08-06T05:31:45;27.00;47.70
56172;DHT22;42052;41.634;-0.946;2023-08-06T05:34:10;27.10;47.80
56172;DHT22;42052;41.634;-0.946;2023-08-06T05:36:36;27.00;47.80
56172;DHT22;42052;41.634;-0.946;2023-08-06T05:39:02;27.00;47.80
56172;DHT22;42052;41.634;-0.946;2023-08-06T05:41:28;27.00;47.80
56172;DHT22;42052;41.634;-0.946;2023-08-06T05:43:54;27.00;47.80
56172;DHT22;42052;41.634;-0.946;2023-08-06T05:46:19;27.00;47.70
56172;DHT22;42052;41.634;-0.946;2023-08-06T05:48:45;27.00;47.70
56172;DHT22;42052;41.634;-0.946;2023-08-06T05:51:11;27.00;47.70
56172;DHT22;42052;41.634;-0.946;2023-08-06T05:53:38;27.00;47.80
56172;DHT22;42052;41.634;-0.946;2023-08-06T05:56:04;27.00;47.70
56172;DHT22;42052;41.634;-0.946;2023-08-06T05:58:30;27.00;47.70
56172;DHT22;42052;41.634;-0.946;2023-08-06T06:00:56;27.00;47.70
56172;DHT22;42052;41.634;-0.946;2023-08-06T06:03:22;27.00;47.60
56172;DHT22;42052;41.634;-0.946;2023-08-06T06:05:48;27.00;47.70
56172;DHT22;42052;41.634;-0.946;2023-08-06T06:08:14;27.00;47.70
56172;DHT22;42052;41.634;-0.946;2023-08-06T06:10:40;27.00;47.60
56172;DHT22;42052;41.634;-0.946;2023-08-06T06:13:06;27.00;47.60
56172;DHT22;42052;41.634;-0.946;2023-08-06T06:15:32;27.00;47.60
56172;DHT22;42052;41.634;-0.946;2023-08-06T06:17:58;27.00;47.70
56172;DHT22;42052;41.634;-0.946;2023-08-06T06:20:23;27.00;47.70
56172;DHT22;42052;41.634;-0.946;2023-08-06T06:22:49;27.00;47.70
56172;DHT22;42052;41.634;-0.946;2023-08-06T06:25:15;27.00;47.60
56172;DHT22;42052;41.634;-0.946;2023-08-06T06:27:41;27.00;47.70
56172;DHT22;42052;41.634;-0.946;2023-08-06T06:30:07;27.00;47.60
56172;DHT22;42052;41.634;-0.946;2023-08-06T06:32:33;27.00;47.50
56172;DHT22;42052;41.634;-0.946;2023-08-06T06:34:59;27.00;47.50
56172;DHT22;42052;41.634;-0.946;2023-08-06T06:37:25;27.00;47.50
56172;DHT22;42052;41.634;-0.946;2023-08-06T06:39:51;27.00;47.50
56172;DHT22;42052;41.634;-0.946;2023-08-06T06:42:17;27.00;47.50
56172;DHT22;42052;41.634;-0.946;2023-08-06T06:44:44;26.90;47.40
56172;DHT22;42052;41.634;-0.946;2023-08-06T06:47:09;27.00;47.50
56172;DHT22;42052;41.634;-0.946;2023-08-06T06:49:36;26.90;47.40
56172;DHT22;42052;41.634;-0.946;2023-08-06T06:52:02;27.00;47.40
56172;DHT22;42052;41.634;-0.946;2023-08-06T06:54:28;27.00;47.50
56172;DHT22;42052;41.634;-0.946;2023-08-06T06:56:53;26.90;47.40
56172;DHT22;42052;41.634;-0.946;2023-08-06T06:59:19;26.90;47.40
56172;DHT22;42052;41.634;-0.946;2023-08-06T07:01:45;26.90;47.40
56172;DHT22;42052;41.634;-0.946;2023-08-06T07:04:10;27.00;47.40
56172;DHT22;42052;41.634;-0.946;2023-08-06T07:06:36;26.90;47.30
56172;DHT22;42052;41.634;-0.946;2023-08-06T07:09:02;27.00;48.10
56172;DHT22;42052;41.634;-0.946;2023-08-06T07:11:28;27.00;47.30
56172;DHT22;42052;41.634;-0.946;2023-08-06T07:13:57;26.90;47.20
56172;DHT22;42052;41.634;-0.946;2023-08-06T07:16:24;27.00;47.20
56172;DHT22;42052;41.634;-0.946;2023-08-06T07:18:51;26.90;47.20
56172;DHT22;42052;41.634;-0.946;2023-08-06T07:21:18;26.90;47.30
56172;DHT22;42052;41.634;-0.946;2023-08-06T07:23:45;26.90;47.30
56172;DHT22;42052;41.634;-0.946;2023-08-06T07:26:11;26.90;47.20
56172;DHT22;42052;41.634;-0.946;2023-08-06T07:28:37;26.90;47.30
56172;DHT22;42052;41.634;-0.946;2023-08-06T07:31:03;26.90;47.30
56172;DHT22;42052;41.634;-0.946;2023-08-06T07:33:29;27.00;47.30
56172;DHT22;42052;41.634;-0.946;2023-08-06T07:35:55;26.90;47.30
56172;DHT22;42052;41.634;-0.946;2023-08-06T07:38:21;26.90;47.20
56172;DHT22;42052;41.634;-0.946;2023-08-06T07:40:47;26.90;47.20
56172;DHT22;42052;41.634;-0.946;2023-08-06T07:43:12;26.90;47.10
56172;DHT22;42052;41.634;-0.946;2023-08-06T07:45:38;26.90;47.10
56172;DHT22;42052;41.634;-0.946;2023-08-06T07:48:04;26.90;47.00
56172;DHT22;42052;41.634;-0.946;2023-08-06T07:50:30;26.90;46.90
56172;DHT22;42052;41.634;-0.946;2023-08-06T07:52:56;26.90;47.10
56172;DHT22;42052;41.634;-0.946;2023-08-06T07:55:22;26.90;47.00
56172;DHT22;42052;41.634;-0.946;2023-08-06T07:57:48;26.90;47.10
56172;DHT22;42052;41.634;-0.946;2023-08-06T08:00:14;26.90;47.00
56172;DHT22;42052;41.634;-0.946;2023-08-06T08:02:39;26.90;47.20
56172;DHT22;42052;41.634;-0.946;2023-08-06T08:05:06;26.90;47.10
56172;DHT22;42052;41.634;-0.946;2023-08-06T08:07:33;26.90;47.10
56172;DHT22;42052;41.634;-0.946;2023-08-06T08:09:59;26.90;47.10
56172;DHT22;42052;41.634;-0.946;2023-08-06T08:12:26;26.90;47.10
56172;DHT22;42052;41.634;-0.946;2023-08-06T08:14:52;26.90;47.10
56172;DHT22;42052;41.634;-0.946;2023-08-06T08:17:18;26.90;47.00
56172;DHT22;42052;41.634;-0.946;2023-08-06T08:19:44;26.90;47.10
56172;DHT22;42052;41.634;-0.946;2023-08-06T08:22:10;26.90;47.10
56172;DHT22;42052;41.634;-0.946;2023-08-06T08:24:36;26.90;47.20
56172;DHT22;42052;41.634;-0.946;2023-08-06T08:27:01;26.90;47.20
56172;DHT22;42052;41.634;-0.946;2023-08-06T08:29:27;26.90;47.30
56172;DHT22;42052;41.634;-0.946;2023-08-06T08:31:53;26.90;47.30
56172;DHT22;42052;41.634;-0.946;2023-08-06T08:34:19;26.90;47.30
56172;DHT22;42052;41.634;-0.946;2023-08-06T08:36:45;26.90;47.40
56172;DHT22;42052;41.634;-0.946;2023-08-06T08:39:15;26.90;47.30
56172;DHT22;42052;41.634;-0.946;2023-08-06T08:41:42;26.90;47.30
56172;DHT22;42052;41.634;-0.946;2023-08-06T08:44:09;26.90;47.30
56172;DHT22;42052;41.634;-0.946;2023-08-06T08:46:40;26.90;47.30
56172;DHT22;42052;41.634;-0.946;2023-08-06T08:49:07;26.90;47.30
56172;DHT22;42052;41.634;-0.946;2023-08-06T08:51:34;26.90;47.30
56172;DHT22;42052;41.634;-0.946;2023-08-06T08:54:03;26.90;47.20
56172;DHT22;42052;41.634;-0.946;2023-08-06T08:56:29;26.90;47.20
56172;DHT22;42052;41.634;-0.946;2023-08-06T08:58:56;26.90;47.30
56172;DHT22;42052;41.634;-0.946;2023-08-06T09:01:22;26.90;47.30
56172;DHT22;42052;41.634;-0.946;2023-08-06T09:03:49;26.90;47.20
56172;DHT22;42052;41.634;-0.946;2023-08-06T09:06:15;26.90;47.20
56172;DHT22;42052;41.634;-0.946;2023-08-06T09:08:51;26.90;47.30
56172;DHT22;42052;41.634;-0.946;2023-08-06T09:11:20;26.90;47.40
56172;DHT22;42052;41.634;-0.946;2023-08-06T09:13:47;26.90;47.30
56172;DHT22;42052;41.634;-0.946;2023-08-06T09:16:13;26.90;47.30
56172;DHT22;42052;41.634;-0.946;2023-08-06T09:18:39;26.90;47.20
56172;DHT22;42052;41.634;-0.946;2023-08-06T09:21:05;26.90;47.20
56172;DHT22;42052;41.634;-0.946;2023-08-06T09:23:31;26.90;47.20
56172;DHT22;42052;41.634;-0.946;2023-08-06T09:26:02;26.90;47.20
56172;DHT22;42052;41.634;-0.946;2023-08-06T09:28:38;26.90;47.30
56172;DHT22;42052;41.634;-0.946;2023-08-06T09:31:04;26.90;47.30
56172;DHT22;42052;41.634;-0.946;2023-08-06T09:33:30;26.90;47.20
56172;DHT22;42052;41.634;-0.946;2023-08-06T09:35:56;26.90;47.20
56172;DHT22;42052;41.634;-0.946;2023-08-06T09:38:22;26.90;47.20
56172;DHT22;42052;41.634;-0.946;2023-08-06T09:40:48;26.90;47.20
56172;DHT22;42052;41.634;-0.946;2023-08-06T09:43:14;26.90;47.10
56172;DHT22;42052;41.634;-0.946;2023-08-06T09:45:40;26.90;47.20
56172;DHT22;42052;41.634;-0.946;2023-08-06T09:48:07;26.90;47.20
56172;DHT22;42052;41.634;-0.946;2023-08-06T09:50:38;26.90;47.20
56172;DHT22;42052;41.634;-0.946;2023-08-06T09:53:05;26.90;47.10
56172;DHT22;42052;41.634;-0.946;2023-08-06T09:55:33;27.00;47.20
56172;DHT22;42052;41.634;-0.946;2023-08-06T09:57:59;26.90;47.10
56172;DHT22;42052;41.634;-0.946;2023-08-06T10:00:26;26.90;47.00
56172;DHT22;42052;41.634;-0.946;2023-08-06T10:02:53;26.90;47.00
56172;DHT22;42052;41.634;-0.946;2023-08-06T10:05:22;26.90;47.00
56172;DHT22;42052;41.634;-0.946;2023-08-06T10:07:49;26.90;47.10
56172;DHT22;42052;41.634;-0.946;2023-08-06T10:10:16;26.90;47.10
56172;DHT22;42052;41.634;-0.946;2023-08-06T10:12:48;26.90;47.10
56172;DHT22;42052;41.634;-0.946;2023-08-06T10:15:17;26.90;47.10
56172;DHT22;42052;41.634;-0.946;2023-08-06T10:17:47;26.90;47.00
56172;DHT22;42052;41.634;-0.946;2023-08-06T10:20:14;26.90;47.10
56172;DHT22;42052;41.634;-0.946;2023-08-06T10:22:44;26.90;46.90
56172;DHT22;42052;41.634;-0.946;2023-08-06T10:25:10;27.00;47.00
56172;DHT22;42052;41.634;-0.946;2023-08-06T10:27:52;26.90;47.00
56172;DHT22;42052;41.634;-0.946;2023-08-06T10:30:29;26.90;46.90
56172;DHT22;42052;41.634;-0.946;2023-08-06T10:38:11;27.00;47.10
56172;DHT22;42052;41.634;-0.946;2023-08-06T10:40:40;27.00;47.10
56172;DHT22;42052;41.634;-0.946;2023-08-06T10:43:06;27.00;47.10
56172;DHT22;42052;41.634;-0.946;2023-08-06T10:45:35;26.90;47.00
56172;DHT22;42052;41.634;-0.946;2023-08-06T10:48:01;27.00;47.10
56172;DHT22;42052;41.634;-0.946;2023-08-06T10:50:27;27.00;47.00
56172;DHT22;42052;41.634;-0.946;2023-08-06T10:52:53;26.90;47.00
56172;DHT22;42052;41.634;-0.946;2023-08-06T10:55:26;26.90;46.90
56172;DHT22;42052;41.634;-0.946;2023-08-06T10:57:53;27.00;47.00
56172;DHT22;42052;41.634;-0.946;2023-08-06T11:00:23;27.00;47.00
56172;DHT22;42052;41.634;-0.946;2023-08-06T11:02:49;27.00;47.00
56172;DHT22;42052;41.634;-0.946;2023-08-06T11:05:16;27.00;47.00
56172;DHT22;42052;41.634;-0.946;2023-08-06T11:07:43;27.00;47.00
56172;DHT22;42052;41.634;-0.946;2023-08-06T11:10:12;27.00;47.00
56172;DHT22;42052;41.634;-0.946;2023-08-06T11:12:39;27.00;47.00
56172;DHT22;42052;41.634;-0.946;2023-08-06T11:15:06;27.00;47.10
56172;DHT22;42052;41.634;-0.946;2023-08-06T11:17:33;27.00;47.00
56172;DHT22;42052;41.634;-0.946;2023-08-06T11:20:01;27.00;47.00
56172;DHT22;42052;41.634;-0.946;2023-08-06T11:22:27;27.00;47.00
56172;DHT22;42052;41.634;-0.946;2023-08-06T11:24:53;27.00;47.00
56172;DHT22;42052;41.634;-0.946;2023-08-06T11:27:20;27.00;47.00
56172;DHT22;42052;41.634;-0.946;2023-08-06T11:29:46;27.00;47.00
56172;DHT22;42052;41.634;-0.946;2023-08-06T11:32:12;27.00;47.00
56172;DHT22;42052;41.634;-0.946;2023-08-06T11:34:39;27.00;47.00
56172;DHT22;42052;41.634;-0.946;2023-08-06T11:37:06;27.00;47.00
56172;DHT22;42052;41.634;-0.946;2023-08-06T11:39:36;27.00;47.00
56172;DHT22;42052;41.634;-0.946;2023-08-06T11:42:06;27.00;47.10
56172;DHT22;42052;41.634;-0.946;2023-08-06T11:44:34;27.00;47.00
56172;DHT22;42052;41.634;-0.946;2023-08-06T11:47:02;27.00;47.00
56172;DHT22;42052;41.634;-0.946;2023-08-06T11:54:47;27.00;47.10
56172;DHT22;42052;41.634;-0.946;2023-08-06T11:57:15;27.00;47.00
56172;DHT22;42052;41.634;-0.946;2023-08-06T11:59:41;27.00;47.00
56172;DHT22;42052;41.634;-0.946;2023-08-06T12:02:09;27.00;47.10
56172;DHT22;42052;41.634;-0.946;2023-08-06T12:05:01;27.00;47.10
56172;DHT22;42052;41.634;-0.946;2023-08-06T12:07:29;27.10;47.10
56172;DHT22;42052;41.634;-0.946;2023-08-06T12:09:56;27.00;46.90
56172;DHT22;42052;41.634;-0.946;2023-08-06T12:12:22;27.10;47.00
56172;DHT22;42052;41.634;-0.946;2023-08-06T12:14:48;27.00;47.00
56172;DHT22;42052;41.634;-0.946;2023-08-06T12:17:13;27.10;47.00
56172;DHT22;42052;41.634;-0.946;2023-08-06T12:19:39;27.10;47.00
56172;DHT22;42052;41.634;-0.946;2023-08-06T12:22:05;27.10;47.00
56172;DHT22;42052;41.634;-0.946;2023-08-06T12:24:31;27.00;47.00
56172;DHT22;42052;41.634;-0.946;2023-08-06T12:27:00;27.00;46.90
56172;DHT22;42052;41.634;-0.946;2023-08-06T12:29:27;27.00;47.00
56172;DHT22;42052;41.634;-0.946;2023-08-06T12:31:53;27.10;46.90
56172;DHT22;42052;41.634;-0.946;2023-08-06T12:34:20;27.10;46.90
56172;DHT22;42052;41.634;-0.946;2023-08-06T12:36:46;27.10;46.90
56172;DHT22;42052;41.634;-0.946;2023-08-06T12:39:12;27.10;46.90
56172;DHT22;42052;41.634;-0.946;2023-08-06T12:41:38;27.10;47.00
56172;DHT22;42052;41.634;-0.946;2023-08-06T12:44:04;27.10;46.90
56172;DHT22;42052;41.634;-0.946;2023-08-06T12:46:31;27.10;46.80
56172;DHT22;42052;41.634;-0.946;2023-08-06T12:48:56;27.10;46.90
56172;DHT22;42052;41.634;-0.946;2023-08-06T12:51:24;27.00;46.90
56172;DHT22;42052;41.634;-0.946;2023-08-06T12:53:50;27.10;47.00
56172;DHT22;42052;41.634;-0.946;2023-08-06T12:56:16;27.10;46.90
56172;DHT22;42052;41.634;-0.946;2023-08-06T12:58:43;27.10;46.90
56172;DHT22;42052;41.634;-0.946;2023-08-06T13:01:09;27.10;46.90
56172;DHT22;42052;41.634;-0.946;2023-08-06T13:03:35;27.10;46.90
56172;DHT22;42052;41.634;-0.946;2023-08-06T13:06:02;27.10;46.90
56172;DHT22;42052;41.634;-0.946;2023-08-06T13:08:28;27.10;46.80
56172;DHT22;42052;41.634;-0.946;2023-08-06T13:10:54;27.10;46.80
56172;DHT22;42052;41.634;-0.946;2023-08-06T13:13:20;27.10;46.90
56172;DHT22;42052;41.634;-0.946;2023-08-06T13:15:46;27.10;46.80
56172;DHT22;42052;41.634;-0.946;2023-08-06T13:18:13;27.10;46.80
56172;DHT22;42052;41.634;-0.946;2023-08-06T13:20:39;27.10;46.90
56172;DHT22;42052;41.634;-0.946;2023-08-06T13:23:08;27.10;46.80
56172;DHT22;42052;41.634;-0.946;2023-08-06T13:25:33;27.10;46.80
56172;DHT22;42052;41.634;-0.946;2023-08-06T13:28:03;27.10;47.00
56172;DHT22;42052;41.634;-0.946;2023-08-06T13:30:29;27.10;46.90
56172;DHT22;42052;41.634;-0.946;2023-08-06T13:32:55;27.10;46.90
56172;DHT22;42052;41.634;-0.946;2023-08-06T13:35:22;27.10;46.90
56172;DHT22;42052;41.634;-0.946;2023-08-06T13:37:48;27.10;46.80
56172;DHT22;42052;41.634;-0.946;2023-08-06T13:40:14;27.10;46.90
56172;DHT22;42052;41.634;-0.946;2023-08-06T13:42:42;27.10;46.90
56172;DHT22;42052;41.634;-0.946;2023-08-06T13:45:09;27.20;46.90
56172;DHT22;42052;41.634;-0.946;2023-08-06T13:47:35;27.10;46.90
56172;DHT22;42052;41.634;-0.946;2023-08-06T13:50:01;27.10;46.90
56172;DHT22;42052;41.634;-0.946;2023-08-06T13:52:27;27.20;46.90
56172;DHT22;42052;41.634;-0.946;2023-08-06T13:54:52;27.10;46.90
56172;DHT22;42052;41.634;-0.946;2023-08-06T13:57:18;27.10;46.90
56172;DHT22;42052;41.634;-0.946;2023-08-06T13:59:44;27.10;46.90
56172;DHT22;42052;41.634;-0.946;2023-08-06T14:02:10;27.20;46.90
56172;DHT22;42052;41.634;-0.946;2023-08-06T14:04:36;27.20;47.00
56172;DHT22;42052;41.634;-0.946;2023-08-06T14:07:05;27.10;46.80
56172;DHT22;42052;41.634;-0.946;2023-08-06T14:09:31;27.10;46.80
56172;DHT22;42052;41.634;-0.946;2023-08-06T14:11:57;27.10;46.80
56172;DHT22;42052;41.634;-0.946;2023-08-06T14:14:22;27.10;46.90
56172;DHT22;42052;41.634;-0.946;2023-08-06T14:16:52;27.10;46.90
56172;DHT22;42052;41.634;-0.946;2023-08-06T14:19:18;27.10;46.80
56172;DHT22;42052;41.634;-0.946;2023-08-06T14:21:44;27.10;46.80
56172;DHT22;42052;41.634;-0.946;2023-08-06T14:24:10;27.10;47.00
56172;DHT22;42052;41.634;-0.946;2023-08-06T14:26:36;27.10;46.80
56172;DHT22;42052;41.634;-0.946;2023-08-06T14:29:02;27.10;46.90
56172;DHT22;42052;41.634;-0.946;2023-08-06T14:31:28;27.10;46.80
56172;DHT22;42052;41.634;-0.946;2023-08-06T14:33:54;27.10;46.90
56172;DHT22;42052;41.634;-0.946;2023-08-06T14:36:20;27.10;46.90
56172;DHT22;42052;41.634;-0.946;2023-08-06T14:38:46;27.10;47.00
56172;DHT22;42052;41.634;-0.946;2023-08-06T14:41:12;27.10;46.80
56172;DHT22;42052;41.634;-0.946;2023-08-06T14:43:37;27.10;46.80
56172;DHT22;42052;41.634;-0.946;2023-08-06T14:46:03;27.10;47.00
56172;DHT22;42052;41.634;-0.946;2023-08-06T14:48:30;27.10;46.80
56172;DHT22;42052;41.634;-0.946;2023-08-06T14:50:56;27.10;46.90
56172;DHT22;42052;41.634;-0.946;2023-08-06T14:53:22;27.10;46.90
56172;DHT22;42052;41.634;-0.946;2023-08-06T14:55:48;27.10;46.90
56172;DHT22;42052;41.634;-0.946;2023-08-06T14:58:14;27.10;47.00
56172;DHT22;42052;41.634;-0.946;2023-08-06T15:00:40;27.10;47.00
56172;DHT22;42052;41.634;-0.946;2023-08-06T15:03:06;27.10;46.90
56172;DHT22;42052;41.634;-0.946;2023-08-06T15:05:33;27.10;46.90
56172;DHT22;42052;41.634;-0.946;2023-08-06T15:07:59;27.10;46.90
56172;DHT22;42052;41.634;-0.946;2023-08-06T15:10:25;27.20;47.00
56172;DHT22;42052;41.634;-0.946;2023-08-06T15:12:51;27.10;47.00
56172;DHT22;42052;41.634;-0.946;2023-08-06T15:15:17;27.20;47.00
56172;DHT22;42052;41.634;-0.946;2023-08-06T15:17:43;27.10;46.90
56172;DHT22;42052;41.634;-0.946;2023-08-06T15:20:10;27.10;46.80
56172;DHT22;42052;41.634;-0.946;2023-08-06T15:22:35;27.20;46.90